createdAt,value
2022-10-29T00:00:50.110Z,6.5
2022-10-29T00:02:49.701Z,7.4
2022-10-29T00:04:50.031Z,6.6
2022-10-29T00:08:50.314Z,6.7
2022-10-29T00:10:49.788Z,6.7
2022-10-29T00:12:50.386Z,6.7
2022-10-29T00:14:49.927Z,7.6
2022-10-29T00:16:49.812Z,5.6
2022-10-29T00:18:50.329Z,5.6
2022-10-29T00:20:49.913Z,8.4
2022-10-29T00:22:50.349Z,5.4
2022-10-29T00:24:50.183Z,5.4
2022-10-29T00:26:50.146Z,6.4
2022-10-29T00:28:49.801Z,5.6
2022-10-29T00:30:50.332Z,7.9
2022-10-29T00:32:49.823Z,7.3
2022-10-29T00:34:49.832Z,8.5
2022-10-29T00:36:49.883Z,8.4
2022-10-29T00:38:50.499Z,6.3
2022-10-29T00:40:50.012Z,6.3
2022-10-29T00:42:49.627Z,9.9
2022-10-29T00:44:50.018Z,6.8
2022-10-29T00:46:49.934Z,6.6
2022-10-29T00:48:50.211Z,6.6
2022-10-29T00:50:49.674Z,8.8
2022-10-29T00:52:50.263Z,7.6
2022-10-29T00:54:49.833Z,5.7
2022-10-29T00:56:49.720Z,10.4
2022-10-29T00:58:49.644Z,10.4
2022-10-29T01:00:50.202Z,6.1
2022-10-29T01:02:49.868Z,7.9
2022-10-29T01:04:50.374Z,7.3
2022-10-29T01:06:50.193Z,7.3
2022-10-29T01:08:49.632Z,6.4
2022-10-29T01:10:50.213Z,9.5
2022-10-29T01:12:49.764Z,6.4
2022-10-29T01:14:50.358Z,6.4
2022-10-29T01:16:50.190Z,5.5
2022-10-29T01:18:49.680Z,7.8
2022-10-29T01:20:50.548Z,5.8
2022-10-29T01:22:50.079Z,11.4
2022-10-29T01:24:50.470Z,11.4
2022-10-29T01:26:50.334Z,11.4
2022-10-29T01:28:49.747Z,8.3
2022-10-29T01:30:50.154Z,7.6
2022-10-29T01:32:49.665Z,7.7
2022-10-29T01:34:49.590Z,7.7
2022-10-29T01:36:50.494Z,8.0
2022-10-29T01:38:50.017Z,8.0
2022-10-29T01:40:50.497Z,7.6
2022-10-29T01:42:49.946Z,7.6
2022-10-29T01:44:50.428Z,6.0
2022-10-29T01:46:50.165Z,5.5
2022-10-29T01:48:49.663Z,8.4
2022-10-29T01:50:50.087Z,6.4
2022-10-29T01:52:49.625Z,6.5
2022-10-29T01:54:50.113Z,6.5
2022-10-29T01:56:49.855Z,7.7
2022-10-29T01:58:50.337Z,7.9
2022-10-29T02:00:49.777Z,10.2
2022-10-29T02:02:50.481Z,9.6
2022-10-29T02:04:50.359Z,9.0
2022-10-29T02:06:50.511Z,9.0
2022-10-29T02:08:50.260Z,7.8
2022-10-29T02:10:49.654Z,6.5
2022-10-29T02:12:50.153Z,8.4
2022-10-29T02:14:50.522Z,8.4
2022-10-29T02:16:50.150Z,7.6
2022-10-29T02:18:49.688Z,7.6
2022-10-29T02:20:50.159Z,7.5
2022-10-29T02:22:49.680Z,6.4
2022-10-29T02:24:50.080Z,7.8
2022-10-29T02:26:49.883Z,7.8
2022-10-29T02:28:50.295Z,10.0
2022-10-29T02:30:49.727Z,7.6
2022-10-29T02:32:50.150Z,7.6
2022-10-29T02:34:50.333Z,9.4
2022-10-29T02:36:50.271Z,9.4
2022-10-29T02:38:49.751Z,13.2
2022-10-29T02:40:50.178Z,8.0
2022-10-29T02:42:49.592Z,8.0
2022-10-29T02:44:50.072Z,7.6
2022-10-29T02:46:49.879Z,10.0
2022-10-29T02:48:50.491Z,9.9
2022-10-29T02:50:49.974Z,7.5
2022-10-29T02:52:50.446Z,7.5
2022-10-29T02:54:49.896Z,7.5
2022-10-29T02:56:49.733Z,8.5
2022-10-29T02:58:50.136Z,7.0
2022-10-29T03:00:50.548Z,7.0
2022-10-29T03:02:49.962Z,9.9
2022-10-29T03:04:50.431Z,9.9
2022-10-29T03:06:50.099Z,8.8
2022-10-29T03:08:50.412Z,9.4
2022-10-29T03:10:49.800Z,8.3
2022-10-29T03:12:50.189Z,8.3
2022-10-29T03:14:49.672Z,8.3
2022-10-29T03:16:50.450Z,12.0
2022-10-29T03:18:49.888Z,8.1
2022-10-29T03:20:50.241Z,8.1
2022-10-29T03:22:49.694Z,9.9
2022-10-29T03:24:50.166Z,8.5
2022-10-29T03:26:49.912Z,8.7
2022-10-29T03:28:50.309Z,8.3
2022-10-29T03:30:49.774Z,8.3
2022-10-29T03:32:50.186Z,9.1
2022-10-29T03:34:50.260Z,8.5
2022-10-29T03:36:49.585Z,9.7
2022-10-29T03:38:49.961Z,9.7
2022-10-29T03:40:50.398Z,9.0
2022-10-29T03:42:49.827Z,9.6
2022-10-29T03:44:50.422Z,12.3
2022-10-29T03:46:50.385Z,8.7
2022-10-29T03:48:49.955Z,8.7
2022-10-29T03:50:50.457Z,10.2
2022-10-29T03:52:49.948Z,7.6
2022-10-29T03:54:50.344Z,8.1
2022-10-29T03:56:50.039Z,7.5
2022-10-29T03:58:50.416Z,7.5
2022-10-29T04:00:49.794Z,12.4
2022-10-29T04:02:50.198Z,10.9
2022-10-29T04:04:50.500Z,10.3
2022-10-29T04:06:50.305Z,9.4
2022-10-29T04:08:49.727Z,9.4
2022-10-29T04:10:50.184Z,9.6
2022-10-29T04:12:49.592Z,9.6
2022-10-29T04:16:50.297Z,10.1
2022-10-29T04:18:49.830Z,9.0
2022-10-29T04:21:59.001Z,9.0
2022-10-29T04:28:50.079Z,8.5
2022-10-29T04:30:49.555Z,8.5
2022-10-29T04:32:49.891Z,7.9
2022-10-29T04:34:49.780Z,11.8
2022-10-29T04:36:50.477Z,7.9
2022-10-29T04:38:49.897Z,7.9
2022-10-29T04:40:50.398Z,11.0
2022-10-29T04:42:49.911Z,8.8
2022-10-29T04:44:50.320Z,11.1
2022-10-29T04:46:50.075Z,11.1
2022-10-29T04:48:49.630Z,12.8
2022-10-29T04:50:50.522Z,8.1
2022-10-29T04:52:50.092Z,10.0
2022-10-29T04:54:49.619Z,10.0
2022-10-29T04:56:50.487Z,9.7
2022-10-29T04:58:49.968Z,7.4
2022-10-29T05:00:50.511Z,9.9
2022-10-29T05:02:50.458Z,9.9
2022-10-29T05:04:50.529Z,11.4
2022-10-29T05:06:50.336Z,11.4
2022-10-29T05:08:49.862Z,7.7
2022-10-29T05:10:50.416Z,9.3
2022-10-29T05:12:50.013Z,7.5
2022-10-29T05:14:50.500Z,10.5
2022-10-29T05:16:50.253Z,10.5
2022-10-29T05:18:49.756Z,9.8
2022-10-29T05:20:50.287Z,8.5
2022-10-29T05:22:49.679Z,7.9
2022-10-29T05:24:50.125Z,7.6
2022-10-29T05:26:50.003Z,7.6
2022-10-29T05:28:50.475Z,9.3
2022-10-29T05:30:49.866Z,12.3
2022-10-29T05:32:50.241Z,10.4
2022-10-29T05:34:50.323Z,8.6
2022-10-29T05:36:50.203Z,8.6
2022-10-29T05:38:49.681Z,8.6
2022-10-29T05:40:49.699Z,9.2
2022-10-29T05:42:50.114Z,9.2
2022-10-29T05:44:49.709Z,7.7
2022-10-29T05:46:50.544Z,7.3
2022-10-29T05:48:50.017Z,8.3
2022-10-29T05:50:49.650Z,8.5
2022-10-29T05:52:50.076Z,10.5
2022-10-29T05:54:49.588Z,10.5
2022-10-29T05:56:50.327Z,8.1
2022-10-29T05:58:49.935Z,7.8
2022-10-29T06:00:50.396Z,7.4
2022-10-29T06:02:49.863Z,8.8
2022-10-29T06:04:50.176Z,8.8
2022-10-29T06:06:50.245Z,9.6
2022-10-29T06:08:49.993Z,12.3
2022-10-29T06:10:50.463Z,13.8
2022-10-29T06:12:49.912Z,13.8
2022-10-29T06:14:50.344Z,8.4
2022-10-29T06:16:50.353Z,9.3
2022-10-29T06:18:49.799Z,7.9
2022-10-29T06:20:50.386Z,8.8
2022-10-29T06:22:49.816Z,8.8
2022-10-29T06:24:50.365Z,7.3
2022-10-29T06:26:50.143Z,7.5
2022-10-29T06:28:49.792Z,8.1
2022-10-29T06:30:50.487Z,7.7
2022-10-29T06:32:50.102Z,7.7
2022-10-29T06:34:50.172Z,10.2
2022-10-29T06:36:50.202Z,9.1
2022-10-29T06:38:49.611Z,7.4
2022-10-29T06:40:50.186Z,9.0
2022-10-29T06:42:49.748Z,8.5
2022-10-29T06:44:50.430Z,8.5
2022-10-29T06:46:50.218Z,10.4
2022-10-29T06:48:49.786Z,9.7
2022-10-29T06:50:50.368Z,8.7
2022-10-29T06:52:49.872Z,8.7
2022-10-29T06:54:50.316Z,8.2
2022-10-29T06:56:50.057Z,12.2
2022-10-29T06:58:50.518Z,9.8
2022-10-29T07:00:50.306Z,9.3
2022-10-29T07:02:49.616Z,9.3
2022-10-29T07:04:50.510Z,9.5
2022-10-29T07:06:50.278Z,9.9
2022-10-29T07:08:49.925Z,8.9
2022-10-29T07:10:50.420Z,8.9
2022-10-29T07:12:49.963Z,6.0
2022-10-29T07:14:50.507Z,6.0
2022-10-29T07:16:50.333Z,7.5
2022-10-29T07:18:49.827Z,7.5
2022-10-29T07:20:49.596Z,7.3
2022-10-29T07:22:50.043Z,7.0
2022-10-29T07:24:49.695Z,7.0
2022-10-29T07:26:50.551Z,7.8
2022-10-29T07:28:50.029Z,10.1
2022-10-29T07:30:50.549Z,10.1
2022-10-29T07:32:50.082Z,7.9
2022-10-29T07:34:50.171Z,12.7
2022-10-29T07:36:50.105Z,11.2
2022-10-29T07:38:50.497Z,9.3
2022-10-29T07:40:50.069Z,9.3
2022-10-29T07:42:50.534Z,8.5
2022-10-29T07:44:50.123Z,7.1
2022-10-29T07:46:49.849Z,6.8
2022-10-29T07:48:50.423Z,7.8
2022-10-29T07:50:49.900Z,7.8
2022-10-29T07:52:50.374Z,6.7
2022-10-29T07:54:49.860Z,8.0
2022-10-29T07:56:49.713Z,11.3
2022-10-29T07:58:50.140Z,7.1
2022-10-29T08:00:49.811Z,7.1
2022-10-29T08:02:49.849Z,9.2
2022-10-29T08:04:49.705Z,6.2
2022-10-29T08:06:49.562Z,8.5
2022-10-29T08:08:50.090Z,6.1
2022-10-29T08:10:50.504Z,6.1
2022-10-29T08:12:50.113Z,5.6
2022-10-29T08:14:49.632Z,5.6
2022-10-29T08:16:50.420Z,5.6
2022-10-29T08:18:49.861Z,6.7
2022-10-29T08:20:50.231Z,7.8
2022-10-29T08:22:49.783Z,10.7
2022-10-29T08:24:49.672Z,10.7
2022-10-29T08:26:50.532Z,5.9
2022-10-29T08:28:49.950Z,5.9
2022-10-29T08:30:50.515Z,4.6
2022-10-29T08:32:49.983Z,9.2
2022-10-29T08:34:49.790Z,6.9
2022-10-29T08:36:49.597Z,8.1
2022-10-29T08:38:50.068Z,8.1
2022-10-29T08:40:49.569Z,7.1
2022-10-29T08:42:50.041Z,9.2
2022-10-29T08:44:50.417Z,8.9
2022-10-29T08:46:50.145Z,5.4
2022-10-29T08:48:49.799Z,5.4
2022-10-29T08:50:50.416Z,7.5
2022-10-29T08:52:58.627Z,6.1
2022-10-29T08:54:50.473Z,6.5
2022-10-29T08:56:50.210Z,7.5
2022-10-29T08:58:49.767Z,7.5
2022-10-29T09:00:50.238Z,6.4
2022-10-29T09:02:49.993Z,8.1
2022-10-29T09:04:50.190Z,8.0
2022-10-29T09:06:49.954Z,8.1
2022-10-29T09:08:50.496Z,8.1
2022-10-29T09:10:50.046Z,8.6
2022-10-29T09:12:49.578Z,8.2
2022-10-29T09:14:50.052Z,8.0
2022-10-29T09:16:49.700Z,5.5
2022-10-29T09:18:50.097Z,5.5
2022-10-29T09:20:49.701Z,7.9
2022-10-29T09:22:50.174Z,6.4
2022-10-29T09:24:49.613Z,9.7
2022-10-29T09:26:50.418Z,9.7
2022-10-29T09:28:49.832Z,7.4
2022-10-29T09:30:50.331Z,5.8
2022-10-29T09:34:49.682Z,7.9
2022-10-29T09:36:50.436Z,7.9
2022-10-29T09:38:49.954Z,8.5
2022-10-29T09:40:50.387Z,8.4
2022-10-29T09:42:49.981Z,6.5
2022-10-29T09:44:50.383Z,8.3
2022-10-29T09:46:50.298Z,8.3
2022-10-29T09:48:49.887Z,8.3
2022-10-29T09:50:50.477Z,7.1
2022-10-29T09:52:49.899Z,7.1
2022-10-29T09:54:50.432Z,12.5
2022-10-29T09:56:54.826Z,12.5
2022-10-29T09:58:49.791Z,7.5
2022-10-29T10:00:50.225Z,7.9
2022-10-29T10:02:49.775Z,7.9
2022-10-29T10:04:49.998Z,7.1
2022-10-29T10:06:50.027Z,7.1
2022-10-29T10:08:50.425Z,6.3
2022-10-29T10:10:49.938Z,7.8
2022-10-29T10:12:50.399Z,7.3
2022-10-29T10:14:49.919Z,7.3
2022-10-29T10:16:49.735Z,8.4
2022-10-29T10:18:50.221Z,7.9
2022-10-29T10:20:49.733Z,9.4
2022-10-29T10:22:50.150Z,6.7
2022-10-29T10:24:49.659Z,6.7
2022-10-29T10:26:50.506Z,5.5
2022-10-29T10:28:50.072Z,6.9
2022-10-29T10:30:50.546Z,6.1
2022-10-29T10:32:50.204Z,6.1
2022-10-29T10:34:50.265Z,7.7
2022-10-29T10:36:50.203Z,8.1
2022-10-29T10:38:49.958Z,8.1
2022-10-29T10:40:49.889Z,6.4
2022-10-29T10:42:50.388Z,6.4
2022-10-29T10:44:50.052Z,6.4
2022-10-29T10:46:49.958Z,11.6
2022-10-29T10:48:50.536Z,8.9
2022-10-29T10:50:49.955Z,10.0
2022-10-29T10:52:50.473Z,6.9
2022-10-29T10:54:49.881Z,6.9
2022-10-29T10:56:49.814Z,8.5
2022-10-29T10:58:49.599Z,8.1
2022-10-29T11:00:50.173Z,8.3
2022-10-29T11:02:50.096Z,7.6
2022-10-29T11:04:50.076Z,7.6
2022-10-29T11:06:49.996Z,10.6
2022-10-29T11:08:50.481Z,8.5
2022-10-29T11:10:50.164Z,8.2
2022-10-29T11:12:49.739Z,5.8
2022-10-29T11:14:50.350Z,5.8
2022-10-29T11:16:50.250Z,11.4
2022-10-29T11:18:49.932Z,7.1
2022-10-29T11:20:50.445Z,7.5
2022-10-29T11:22:49.995Z,11.1
2022-10-29T11:24:50.512Z,11.1
2022-10-29T11:26:50.401Z,5.9
2022-10-29T11:28:49.925Z,9.3
2022-10-29T11:30:49.637Z,9.6
2022-10-29T11:32:50.056Z,5.5
2022-10-29T11:34:50.042Z,5.5
2022-10-29T11:36:49.903Z,8.3
2022-10-29T11:38:50.432Z,9.6
2022-10-29T11:40:49.943Z,6.9
2022-10-29T11:42:50.562Z,6.9
2022-10-29T11:44:50.116Z,6.9
2022-10-29T11:46:49.975Z,6.9
2022-10-29T11:48:50.463Z,9.3
2022-10-29T11:50:50.035Z,10.2
2022-10-29T11:52:50.444Z,10.2
2022-10-29T11:54:49.922Z,10.8
2022-10-29T11:56:49.817Z,7.7
2022-10-29T11:58:50.339Z,11.7
2022-10-29T12:00:49.857Z,11.7
2022-10-29T12:02:49.821Z,7.2
2022-10-29T12:04:49.782Z,9.6
2022-10-29T12:06:49.628Z,10.5
2022-10-29T12:08:50.214Z,6.7
2022-10-29T12:10:49.814Z,7.8
2022-10-29T12:12:50.441Z,7.8
2022-10-29T12:14:50.021Z,7.8
2022-10-29T12:16:49.872Z,8.7
2022-10-29T12:18:50.460Z,7.6
2022-10-29T12:20:50.046Z,7.6
2022-10-29T12:22:50.505Z,5.5
2022-10-29T12:24:50.148Z,9.4
2022-10-29T12:26:49.980Z,9.4
2022-10-29T12:28:50.506Z,6.1
2022-10-29T12:30:49.987Z,6.1
2022-10-29T12:32:50.529Z,8.3
2022-10-29T12:34:50.449Z,9.0
2022-10-29T12:36:51.907Z,5.8
2022-10-29T12:38:50.376Z,9.2
2022-10-29T12:40:49.854Z,9.2
2022-10-29T12:42:50.500Z,11.0
2022-10-29T12:44:50.001Z,8.0
2022-10-29T12:46:49.769Z,8.3
2022-10-29T12:48:50.244Z,10.8
2022-10-29T12:50:49.854Z,10.8
2022-10-29T12:52:50.401Z,6.9
2022-10-29T12:54:49.998Z,10.9
2022-10-29T12:56:50.400Z,8.9
2022-10-29T12:58:50.192Z,7.9
2022-10-29T13:00:49.794Z,7.9
2022-10-29T13:02:49.733Z,9.4
2022-10-29T13:04:49.680Z,9.4
2022-10-29T13:06:49.622Z,6.5
2022-10-29T13:08:49.583Z,7.5
2022-10-29T13:10:50.075Z,7.5
2022-10-29T13:12:49.709Z,7.7
2022-10-29T13:14:50.285Z,5.2
2022-10-29T13:16:50.178Z,9.5
2022-10-29T13:18:49.679Z,9.5
2022-10-29T13:20:50.164Z,9.3
2022-10-29T13:22:49.689Z,7.2
2022-10-29T13:24:50.310Z,8.5
2022-10-29T13:26:50.180Z,7.3
2022-10-29T13:28:49.696Z,7.3
2022-10-29T13:30:50.122Z,7.7
2022-10-29T13:32:49.721Z,7.7
2022-10-29T13:34:49.644Z,8.3
2022-10-29T13:36:49.653Z,8.3
2022-10-29T13:39:04.145Z,6.8
2022-10-29T13:40:50.074Z,5.4
2022-10-29T13:42:49.568Z,5.4
2022-10-29T13:44:50.194Z,11.0
2022-10-29T13:46:50.046Z,11.0
2022-10-29T13:48:49.593Z,7.0
2022-10-29T13:50:50.108Z,7.9
2022-10-29T13:52:49.652Z,10.0
2022-10-29T13:54:50.181Z,5.7
2022-10-29T13:56:50.151Z,9.0
2022-10-29T13:58:49.589Z,9.0
2022-10-29T14:00:50.088Z,9.0
2022-10-29T14:02:49.896Z,9.1
2022-10-29T14:04:49.869Z,9.0
2022-10-29T14:06:49.803Z,9.0
2022-10-29T14:08:50.296Z,8.1
2022-10-29T14:10:49.696Z,8.4
2022-10-29T14:12:49.778Z,10.2
2022-10-29T14:14:50.290Z,10.2
2022-10-29T14:16:50.207Z,9.7
2022-10-29T14:18:49.777Z,10.7
2022-10-29T14:20:50.358Z,7.2
2022-10-29T14:22:49.829Z,13.9
2022-10-29T14:24:50.377Z,13.9
2022-10-29T14:26:50.224Z,11.9
2022-10-29T14:28:49.688Z,9.3
2022-10-29T14:30:50.130Z,8.2
2022-10-29T14:32:49.604Z,10.9
2022-10-29T14:34:49.566Z,9.1
2022-10-29T14:36:50.335Z,9.1
2022-10-29T14:38:49.855Z,13.8
2022-10-29T14:40:50.298Z,16.2
2022-10-29T14:42:49.890Z,11.9
2022-10-29T14:44:50.404Z,11.9
2022-10-29T14:46:49.822Z,10.2
2022-10-29T14:48:50.360Z,10.3
2022-10-29T14:50:49.899Z,8.7
2022-10-29T14:52:53.317Z,8.7
2022-10-29T14:54:50.178Z,8.9
2022-10-29T14:56:50.072Z,13.7
2022-10-29T14:58:49.768Z,13.2
2022-10-29T15:00:50.386Z,9.2
2022-10-29T15:02:50.441Z,10.2
2022-10-29T15:04:50.100Z,10.2
2022-10-29T15:06:49.920Z,10.7
2022-10-29T15:08:50.452Z,16.7
2022-10-29T15:10:49.946Z,16.7
2022-10-29T15:12:50.352Z,9.6
2022-10-29T15:14:49.820Z,11.9
2022-10-29T15:16:49.668Z,13.7
2022-10-29T15:18:50.286Z,13.6
2022-10-29T15:20:49.872Z,12.6
2022-10-29T15:22:50.511Z,12.6
2022-10-29T15:24:50.019Z,15.1
2022-10-29T15:26:49.841Z,9.1
2022-10-29T15:28:50.375Z,11.4
2022-10-29T15:30:49.846Z,11.4
2022-10-29T15:32:49.910Z,14.8
2022-10-29T15:34:49.802Z,12.6
2022-10-29T15:36:50.545Z,15.5
2022-10-29T15:38:51.969Z,11.8
2022-10-29T15:40:50.109Z,11.8
2022-10-29T15:42:49.671Z,12.7
2022-10-29T15:44:50.133Z,18.4
2022-10-29T15:46:50.157Z,13.6
2022-10-29T15:48:49.684Z,13.6
2022-10-29T15:50:50.135Z,8.7
2022-10-29T15:52:49.677Z,8.7
2022-10-29T15:54:50.209Z,14.1
2022-10-29T15:56:50.495Z,18.3
2022-10-29T15:58:50.039Z,16.3
2022-10-29T16:00:49.660Z,10.8
2022-10-29T16:02:49.642Z,10.8
2022-10-29T16:04:49.627Z,8.6
2022-10-29T16:06:50.532Z,14.1
2022-10-29T16:08:50.117Z,11.6
2022-10-29T16:10:49.598Z,11.6
2022-10-29T16:12:50.241Z,12.9
2022-10-29T16:14:49.712Z,10.3
2022-10-29T16:16:50.505Z,10.7
2022-10-29T16:18:50.047Z,12.2
2022-10-29T16:20:50.557Z,12.2
2022-10-29T16:22:50.128Z,15.4
2022-10-29T16:24:49.642Z,9.9
2022-10-29T16:26:49.596Z,9.9
2022-10-29T16:28:49.963Z,8.5
2022-10-29T16:30:50.445Z,8.5
2022-10-29T16:32:49.937Z,10.9
2022-10-29T16:34:49.949Z,8.6
2022-10-29T16:36:49.856Z,8.6
2022-10-29T16:38:50.475Z,10.4
2022-10-29T16:40:49.990Z,10.4
2022-10-29T16:42:49.698Z,9.7
2022-10-29T16:44:50.261Z,13.2
2022-10-29T16:46:50.185Z,13.0
2022-10-29T16:48:49.675Z,13.0
2022-10-29T16:50:50.272Z,7.7
2022-10-29T16:52:49.707Z,11.3
2022-10-29T16:54:50.264Z,7.7
2022-10-29T16:56:50.170Z,13.1
2022-10-29T16:58:49.707Z,10.7
2022-10-29T17:00:50.294Z,10.7
2022-10-29T17:02:49.644Z,10.8
2022-10-29T17:04:50.506Z,12.4
2022-10-29T17:06:50.303Z,11.4
2022-10-29T17:08:49.636Z,11.4
2022-10-29T17:10:50.170Z,10.4
2022-10-29T17:12:49.640Z,10.3
2022-10-29T17:14:50.115Z,9.4
2022-10-29T17:16:49.899Z,10.8
2022-10-29T17:18:50.295Z,10.8
2022-10-29T17:20:50.003Z,13.1
2022-10-29T17:22:50.433Z,10.0
2022-10-29T17:24:49.995Z,10.2
2022-10-29T17:26:49.856Z,10.2
2022-10-29T17:28:50.245Z,10.2
2022-10-29T17:30:49.753Z,11.6
2022-10-29T17:32:50.165Z,13.4
2022-10-29T17:34:50.051Z,12.0
2022-10-29T17:36:49.971Z,10.8
2022-10-29T17:38:50.490Z,10.8
2022-10-29T17:40:49.852Z,12.9
2022-10-29T17:42:50.355Z,12.9
2022-10-29T17:44:49.859Z,9.1
2022-10-29T17:46:49.611Z,12.6
2022-10-29T17:48:50.052Z,12.6
2022-10-29T17:50:50.495Z,10.7
2022-10-29T17:52:49.916Z,11.3
2022-10-29T17:54:50.440Z,13.1
2022-10-29T17:56:50.234Z,11.2
2022-10-29T17:58:49.766Z,11.2
2022-10-29T18:00:50.252Z,14.6
2022-10-29T18:02:50.329Z,13.5
2022-10-29T18:04:49.627Z,11.5
2022-10-29T18:06:50.423Z,11.3
2022-10-29T18:08:49.943Z,11.3
2022-10-29T18:10:50.301Z,10.5
2022-10-29T18:12:49.901Z,11.5
2022-10-29T18:14:50.376Z,11.0
2022-10-29T18:16:50.247Z,11.0
2022-10-29T18:19:00.537Z,11.2
2022-10-29T18:20:49.710Z,10.8
2022-10-29T18:22:53.319Z,13.6
2022-10-29T18:24:50.031Z,11.0
2022-10-29T18:26:49.892Z,11.0
2022-10-29T18:28:50.387Z,12.7
2022-10-29T18:30:49.828Z,10.3
2022-10-29T18:32:50.218Z,11.0
2022-10-29T18:34:49.631Z,11.0
2022-10-29T18:36:50.467Z,13.5
2022-10-29T18:38:50.354Z,11.0
2022-10-29T18:40:49.773Z,13.4
2022-10-29T18:42:50.223Z,13.4
2022-10-29T18:44:49.713Z,14.1
2022-10-29T18:46:50.458Z,14.1
2022-10-29T18:48:49.898Z,12.0
2022-10-29T18:50:50.489Z,11.3
2022-10-29T18:52:49.934Z,11.7
2022-10-29T18:54:50.472Z,11.7
2022-10-29T18:56:49.573Z,12.1
2022-10-29T18:58:49.925Z,13.9
2022-10-29T19:00:50.519Z,13.3
2022-10-29T19:02:50.340Z,13.8
2022-10-29T19:04:50.246Z,13.8
2022-10-29T19:06:50.236Z,12.4
2022-10-29T19:08:49.737Z,11.8
2022-10-29T19:10:50.129Z,12.0
2022-10-29T19:12:50.484Z,15.4
2022-10-29T19:14:49.891Z,15.4
2022-10-29T19:16:49.682Z,14.0
2022-10-29T19:18:50.105Z,11.8
2022-10-29T19:20:49.832Z,11.8
2022-10-29T19:22:50.140Z,13.3
2022-10-29T19:24:49.627Z,13.3
2022-10-29T19:26:50.232Z,13.3
2022-10-29T19:28:49.689Z,12.0
2022-10-29T19:30:50.081Z,15.3
2022-10-29T19:32:50.489Z,14.3
2022-10-29T19:34:50.524Z,14.3
2022-10-29T19:36:50.212Z,12.0
2022-10-29T19:38:49.744Z,12.0
2022-10-29T19:40:50.123Z,13.9
2022-10-29T19:42:50.549Z,13.9
2022-10-29T19:44:52.076Z,13.7
2022-10-29T19:46:50.363Z,13.1
2022-10-29T19:48:49.854Z,14.9
2022-10-29T19:50:50.240Z,17.7
2022-10-29T19:52:49.636Z,17.7
2022-10-29T19:54:50.172Z,16.6
2022-10-29T19:56:50.021Z,11.6
2022-10-29T19:58:50.430Z,14.3
2022-10-29T20:00:49.977Z,15.4
2022-10-29T20:02:49.720Z,15.4
2022-10-29T20:04:49.647Z,15.5
2022-10-29T20:06:50.356Z,18.8
2022-10-29T20:08:49.800Z,13.9
2022-10-29T20:10:50.218Z,15.3
2022-10-29T20:12:49.576Z,15.3
2022-10-29T20:14:50.061Z,15.4
2022-10-29T20:16:49.896Z,17.1
2022-10-29T20:18:50.378Z,17.1
2022-10-29T20:20:49.933Z,14.7
2022-10-29T20:22:49.592Z,14.7
2022-10-29T20:24:50.082Z,15.4
2022-10-29T20:26:49.935Z,15.4
2022-10-29T20:28:50.426Z,15.9
2022-10-29T20:30:49.914Z,14.6
2022-10-29T20:32:50.237Z,14.6
2022-10-29T20:34:50.164Z,15.5
2022-10-29T20:36:49.815Z,15.0
2022-10-29T20:38:50.037Z,11.4
2022-10-29T20:40:50.400Z,11.4
2022-10-29T20:42:50.073Z,14.3
2022-10-29T20:44:50.120Z,14.3
2022-10-29T20:46:49.937Z,13.7
2022-10-29T20:48:50.351Z,15.0
2022-10-29T20:50:49.874Z,15.0
2022-10-29T20:52:50.164Z,14.3
2022-10-29T20:54:49.698Z,12.8
2022-10-29T20:56:50.296Z,12.8
2022-10-29T20:58:49.710Z,16.0
2022-10-29T21:00:50.245Z,16.0
2022-10-29T21:02:50.096Z,16.0
2022-10-29T21:04:50.268Z,13.7
2022-10-29T21:06:50.153Z,13.7
2022-10-29T21:08:49.623Z,14.7
2022-10-29T21:10:50.097Z,14.0
2022-10-29T21:12:49.552Z,16.7
2022-10-29T21:14:49.958Z,17.5
2022-10-29T21:16:49.636Z,13.7
2022-10-29T21:18:50.197Z,13.7
2022-10-29T21:20:49.627Z,15.4
2022-10-29T21:22:49.980Z,14.7
2022-10-29T21:24:50.355Z,14.7
2022-10-29T21:26:50.039Z,15.3
2022-10-29T21:28:50.548Z,17.6
2022-10-29T21:30:50.599Z,18.9
2022-10-29T21:32:50.090Z,14.0
2022-10-29T21:34:49.923Z,14.0
2022-10-29T21:36:49.680Z,14.7
2022-10-29T21:38:50.087Z,14.7
2022-10-29T21:40:50.512Z,16.0
2022-10-29T21:42:50.030Z,14.3
2022-10-29T21:44:50.415Z,14.3
2022-10-29T21:46:50.256Z,13.0
2022-10-29T21:48:49.672Z,13.0
2022-10-29T21:50:50.292Z,16.3
2022-10-29T21:52:49.903Z,13.4
2022-10-29T21:54:50.196Z,14.6
2022-10-29T21:56:50.013Z,15.3
2022-10-29T21:58:50.419Z,15.3
2022-10-29T22:00:49.896Z,18.2
2022-10-29T22:02:49.774Z,14.8
2022-10-29T22:04:49.775Z,13.7
2022-10-29T22:06:49.584Z,13.7
2022-10-29T22:08:49.996Z,15.1
2022-10-29T22:10:50.519Z,14.6
2022-10-29T22:12:49.847Z,20.1
2022-10-29T22:14:50.164Z,15.5
2022-10-29T22:16:49.897Z,15.5
2022-10-29T22:18:50.433Z,14.2
2022-10-29T22:20:50.043Z,14.0
2022-10-29T22:22:50.341Z,11.7
2022-10-29T22:24:49.645Z,13.3
2022-10-29T22:26:50.472Z,13.3
2022-10-29T22:28:49.886Z,15.3
2022-10-29T22:30:49.616Z,16.6
2022-10-29T22:32:49.960Z,17.7
2022-10-29T22:34:50.024Z,17.7
2022-10-29T22:36:49.827Z,15.1
2022-10-29T22:38:50.192Z,15.2
2022-10-29T22:40:49.732Z,15.4
2022-10-29T22:42:50.087Z,16.2
2022-10-29T22:44:50.542Z,16.2
2022-10-29T22:46:50.304Z,14.0
2022-10-29T22:48:49.755Z,11.4
2022-10-29T22:50:50.483Z,13.8
2022-10-29T22:52:49.867Z,13.5
2022-10-29T22:54:50.295Z,13.5
2022-10-29T22:56:49.978Z,13.5
2022-10-29T22:58:50.372Z,15.1
2022-10-29T23:00:49.931Z,12.9
2022-10-29T23:02:49.650Z,14.0
2022-10-29T23:04:49.556Z,14.0
2022-10-29T23:06:50.220Z,10.8
2022-10-29T23:08:49.679Z,13.8
2022-10-29T23:10:50.130Z,13.2
2022-10-29T23:12:50.497Z,12.6
2022-10-29T23:14:49.957Z,12.6
2022-10-29T23:16:49.795Z,14.1
2022-10-29T23:18:50.384Z,15.9
2022-10-29T23:20:49.795Z,11.8
2022-10-29T23:22:50.181Z,15.1
2022-10-29T23:24:49.873Z,15.1
2022-10-29T23:26:49.624Z,14.0
2022-10-29T23:28:50.045Z,14.0
2022-10-29T23:30:50.447Z,10.8
2022-10-29T23:32:49.800Z,10.8
2022-10-29T23:34:49.672Z,13.4
2022-10-29T23:38:49.985Z,12.5
2022-10-29T23:40:50.419Z,12.3
2022-10-29T23:42:49.938Z,14.9
2022-10-29T23:44:50.322Z,14.9
2022-10-29T23:46:50.088Z,12.9
2022-10-29T23:48:49.574Z,14.4
2022-10-29T23:50:49.965Z,12.9
2022-10-29T23:52:50.353Z,12.9
2022-10-29T23:54:49.719Z,13.7
2022-10-29T23:56:50.442Z,13.0
2022-10-29T23:58:49.939Z,12.1
